Time;durP1;ratioP1;P1;durP2;ratioP2;P2;SDS_P1;SDS_P2;PMS_P1;PMS_P2;Temp;Humidity;BMP_temperature;BMP_pressure;BME280_temperature;BME280_humidity;BME280_pressure;Samples;Min_cycle;Max_cycle;Signal;HPM_P1;HPM_P2
2023/09/29 00:00:55;;;;;;;;;;;;;;;16.50;100.00;100225.25;4891585;29;19928;-75
2023/09/29 00:03:21;;;;;;;;;;;;;;;16.36;100.00;100224.09;4890052;29;20030;-75
2023/09/29 00:05:49;;;;;;;;;;;;;;;16.46;100.00;100222.09;4890267;29;19959;-75
2023/09/29 00:08:22;;;;;;;;;;;;;;;16.51;100.00;100225.09;4892897;29;19928;-74
2023/09/29 00:10:50;;;;;;;;;;;;;;;16.57;100.00;100232.44;4867674;29;19940;-74
2023/09/29 00:13:16;;;;;;;;;;;;;;;16.66;100.00;100228.84;4888218;29;19950;-75
2023/09/29 00:15:42;;;;;;;;;;;;;;;16.72;100.00;100224.66;4889501;29;19927;-75
2023/09/29 00:18:07;;;;;;;;;;;;;;;16.73;100.00;100226.31;4886285;29;19987;-75
2023/09/29 00:20:33;;;;;;;;;;;;;;;16.69;100.00;100220.50;4888665;29;20493;-74
2023/09/29 00:22:59;;;;;;;;;;;;;;;16.70;100.00;100216.84;4888588;29;19935;-74
2023/09/29 00:25:25;;;;;;;;;;;;;;;16.71;100.00;100213.19;4887459;29;19935;-75
2023/09/29 00:27:51;;;;;;;;;;;;;;;16.75;100.00;100213.66;4887078;29;19920;-74
2023/09/29 00:30:17;;;;;;;;;;;;;;;16.76;100.00;100212.66;4889128;29;19924;-74
2023/09/29 00:32:44;;;;;;;;;;;;;;;16.70;100.00;100219.50;4868951;29;19955;-74
2023/09/29 00:35:17;;;;;;;;;;;;;;;16.69;100.00;100217.84;4888540;29;19924;-75
2023/09/29 00:37:44;;;;;;;;;;;;;;;16.59;100.00;100218.97;4881069;29;19923;-75
2023/09/29 00:40:12;;;;;;;;;;;;;;;16.34;100.00;100216.25;4891570;29;19931;-77
2023/09/29 00:42:39;;;;;;;;;;;;;;;16.22;100.00;100216.72;4888530;29;20284;-77
2023/09/29 00:45:05;;;;;;;;;;;;;;;16.23;100.00;100215.72;4891180;29;19931;-77
2023/09/29 00:47:31;;;;;;;;;;;;;;;16.24;100.00;100214.75;4888824;29;19923;-78
2023/09/29 00:49:57;;;;;;;;;;;;;;;16.24;100.00;100212.91;4888319;29;19984;-77
2023/09/29 00:52:23;;;;;;;;;;;;;;;16.23;100.00;100213.06;4892826;29;20341;-77
2023/09/29 00:54:50;;;;;;;;;;;;;;;16.15;100.00;100219.19;4887059;29;20555;-77
2023/09/29 00:57:16;;;;;;;;;;;;;;;16.17;100.00;100219.06;4890697;29;20019;-77
2023/09/29 00:59:43;;;;;;;;;;;;;;;16.15;100.00;100213.03;4883815;29;19994;-77
2023/09/29 01:02:10;;;;;;;;;;;;;;;16.09;100.00;100216.34;4884435;29;20022;-78
2023/09/29 01:04:36;;;;;;;;;;;;;;;16.09;100.00;100211.03;4889713;29;19923;-76
2023/09/29 01:07:03;;;;;;;;;;;;;;;16.15;100.00;100205.88;4888265;29;19979;-78
2023/09/29 01:09:29;;;;;;;;;;;;;;;16.10;100.00;100207.38;4890009;29;20357;-77
2023/09/29 01:11:55;;;;;;;;;;;;;;;15.90;100.00;100207.63;4889144;29;19976;-77
2023/09/29 01:14:21;;;;;;;;;;;;;;;16.00;100.00;100201.38;4887709;29;19924;-74
2023/09/29 01:16:46;;;;;;;;;;;;;;;15.81;100.00;100197.97;4888913;29;19938;-75
2023/09/29 01:19:12;;;;;;;;;;;;;;;15.84;100.00;100205.66;4890639;29;20010;-75
2023/09/29 01:21:44;;;;;;;;;;;;;;;15.91;100.00;100206.66;4886587;29;19924;-75
2023/09/29 01:24:10;;;;;;;;;;;;;;;15.92;100.00;100205.66;4873357;29;19975;-75
2023/09/29 01:26:36;;;;;;;;;;;;;;;15.96;100.00;100206.19;4885293;29;19928;-75
2023/09/29 01:29:01;;;;;;;;;;;;;;;15.95;100.00;100207.19;4889098;29;20388;-76
2023/09/29 01:31:27;;;;;;;;;;;;;;;15.97;100.00;100214.00;4888323;29;19955;-76
2023/09/29 01:33:52;;;;;;;;;;;;;;;15.92;100.00;100205.66;4888564;29;19958;-75
2023/09/29 01:36:18;;;;;;;;;;;;;;;15.81;100.00;100213.09;4884901;29;20425;-76
2023/09/29 01:38:45;;;;;;;;;;;;;;;15.83;100.00;100214.63;4887451;29;19930;-76
2023/09/29 01:41:13;;;;;;;;;;;;;;;15.83;100.00;100209.31;4884661;29;19928;-75
2023/09/29 01:43:39;;;;;;;;;;;;;;;15.85;100.00;100217.94;4884325;29;19931;-76
2023/09/29 01:46:04;;;;;;;;;;;;;;;15.77;100.00;100214.44;4887290;29;20293;-76
2023/09/29 01:48:30;;;;;;;;;;;;;;;15.79;100.00;100205.28;4885622;29;20349;-76
2023/09/29 01:50:56;;;;;;;;;;;;;;;15.81;100.00;100213.94;4885820;29;19991;-75
2023/09/29 01:53:21;;;;;;;;;;;;;;;15.84;100.00;100213.63;4886971;29;20265;-75
2023/09/29 01:55:46;;;;;;;;;;;;;;;15.85;100.00;100215.28;4884221;29;19938;-76
2023/09/29 01:58:12;;;;;;;;;;;;;;;15.87;100.00;100218.63;4878163;29;19924;-76
2023/09/29 02:00:38;;;;;;;;;;;;;;;15.85;100.00;100209.94;4884508;29;19930;-76
2023/09/29 02:03:06;;;;;;;;;;;;;;;15.81;100.00;100219.25;4892391;29;19967;-75
2023/09/29 02:05:32;;;;;;;;;;;;;;;15.82;100.00;100220.94;4889266;29;19928;-76
2023/09/29 02:07:58;;;;;;;;;;;;;;;15.75;100.00;100219.91;4889514;29;19930;-76
2023/09/29 02:10:24;;;;;;;;;;;;;;;15.74;100.00;100220.88;4889527;29;19964;-76
2023/09/29 02:12:54;;;;;;;;;;;;;;;15.73;100.00;100216.56;4890039;29;19924;-77
2023/09/29 02:15:19;;;;;;;;;;;;;;;15.67;100.00;100217.19;4887669;29;19924;-76
2023/09/29 02:17:47;;;;;;;;;;;;;;;15.69;100.00;100211.72;4890835;29;19934;-77
2023/09/29 02:20:46;;;;;;;;;;;;;;;15.62;100.00;100214.19;4888105;29;19940;-77
2023/09/29 02:23:07;;;;;;;;;;;;;;;15.64;100.00;100225.50;4887486;29;20448;-77
2023/09/29 02:25:32;;;;;;;;;;;;;;;15.63;100.00;100215.84;4888932;29;20034;-76
2023/09/29 02:27:59;;;;;;;;;;;;;;;15.60;100.00;100220.66;4879615;29;19923;-77
2023/09/29 02:30:25;;;;;;;;;;;;;;;15.59;100.00;100209.19;4889437;29;19970;-76
2023/09/29 02:32:53;;;;;;;;;;;;;;;15.61;100.00;100207.19;4889808;29;19924;-75
2023/09/29 02:35:19;;;;;;;;;;;;;;;15.62;100.00;100214.19;4890618;29;19924;-76
2023/09/29 02:37:45;;;;;;;;;;;;;;;15.61;100.00;100215.16;4890522;29;19928;-75
2023/09/29 02:40:11;;;;;;;;;;;;;;;15.60;100.00;100218.84;4888003;29;19924;-76
2023/09/29 02:42:36;;;;;;;;;;;;;;;15.52;100.00;100218.78;4890570;29;19998;-75
2023/09/29 02:45:03;;;;;;;;;;;;;;;15.50;100.00;100220.72;4888666;29;20018;-75
2023/09/29 02:47:29;;;;;;;;;;;;;;;15.37;100.00;100225.66;4889442;29;19923;-78
2023/09/29 02:49:56;;;;;;;;;;;;;;;15.32;100.00;100222.63;4888590;29;19974;-75
2023/09/29 02:52:21;;;;;;;;;;;;;;;15.25;100.00;100216.28;4888823;29;20376;-75
2023/09/29 02:54:47;;;;;;;;;;;;;;;15.14;100.00;100206.72;4889912;29;20014;-74
2023/09/29 02:57:14;;;;;;;;;;;;;;;15.10;100.00;100208.88;4887293;29;20022;-75
2023/09/29 02:59:39;;;;;;;;;;;;;;;15.06;100.00;100207.53;4890096;29;19923;-76
2023/09/29 03:02:06;;;;;;;;;;;;;;;15.06;100.00;100212.84;4879794;29;19927;-74
2023/09/29 03:04:31;;;;;;;;;;;;;;;15.07;100.00;100211.00;4892517;29;19927;-77
2023/09/29 03:06:57;;;;;;;;;;;;;;;15.12;100.00;100222.00;4892170;29;19923;-75
2023/09/29 03:09:22;;;;;;;;;;;;;;;15.11;100.00;100231.81;4887486;29;19942;-76
2023/09/29 03:11:49;;;;;;;;;;;;;;;15.09;100.00;100228.47;4893174;29;20017;-76
2023/09/29 03:14:16;;;;;;;;;;;;;;;15.15;100.00;100219.88;4886857;29;20010;-75
2023/09/29 03:16:41;;;;;;;;;;;;;;;15.18;100.00;100220.56;4885796;29;20022;-76
2023/09/29 03:19:08;;;;;;;;;;;;;;;15.19;100.00;100222.22;4892852;29;20018;-75
2023/09/29 03:21:33;;;;;;;;;;;;;;;15.25;100.00;100221.59;4893563;29;20461;-75
2023/09/29 03:23:59;;;;;;;;;;;;;;;15.28;100.00;100215.97;4886701;29;20021;-75
2023/09/29 03:26:26;;;;;;;;;;;;;;;15.26;100.00;100218.75;4891065;29;20201;-75
2023/09/29 03:28:56;;;;;;;;;;;;;;;15.27;100.00;100214.28;4886078;29;19978;-75
2023/09/29 03:31:24;;;;;;;;;;;;;;;15.21;100.00;100221.06;4892990;29;19956;-75
2023/09/29 03:33:51;;;;;;;;;;;;;;;15.10;100.00;100224.81;4889795;29;20006;-75
2023/09/29 03:36:20;;;;;;;;;;;;;;;15.05;100.00;100223.63;4889552;29;19924;-75
2023/09/29 03:38:46;;;;;;;;;;;;;;;15.01;100.00;100220.44;4889439;29;19931;-75
2023/09/29 03:41:11;;;;;;;;;;;;;;;14.95;100.00;100215.75;4890096;29;19979;-75
2023/09/29 03:43:37;;;;;;;;;;;;;;;14.84;100.00;100218.66;4886765;29;19931;-75
2023/09/29 03:46:04;;;;;;;;;;;;;;;14.70;100.00;100224.50;4888756;29;19932;-76
2023/09/29 03:48:29;;;;;;;;;;;;;;;14.67;100.00;100222.13;4887658;29;20432;-75
2023/09/29 03:50:55;;;;;;;;;;;;;;;14.70;100.00;100221.84;4886777;29;19947;-75
2023/09/29 03:53:21;;;;;;;;;;;;;;;14.71;100.00;100220.88;4886010;29;19967;-75
2023/09/29 03:55:47;;;;;;;;;;;;;;;14.72;100.00;100230.50;4888918;29;20281;-75
2023/09/29 03:58:14;;;;;;;;;;;;;;;14.56;100.00;100227.69;4886515;29;19923;-76
2023/09/29 04:00:39;;;;;;;;;;;;;;;14.40;100.00;100219.56;4875967;29;19923;-77
2023/09/29 04:03:06;;;;;;;;;;;;;;;14.49;100.00;100224.00;4889356;29;19998;-76
2023/09/29 04:05:32;;;;;;;;;;;;;;;14.55;100.00;100215.41;4886875;29;19924;-76
2023/09/29 04:07:57;;;;;;;;;;;;;;;14.62;100.00;100225.25;4887685;29;19931;-76
2023/09/29 04:10:23;;;;;;;;;;;;;;;14.65;100.00;100224.13;4888216;29;19931;-76
2023/09/29 04:12:49;;;;;;;;;;;;;;;14.70;100.00;100221.84;4885095;29;19924;-76
2023/09/29 04:15:16;;;;;;;;;;;;;;;14.76;100.00;100223.88;4889043;29;20407;-75
2023/09/29 04:17:41;;;;;;;;;;;;;;;14.79;100.00;100212.94;4885811;29;20420;-77
2023/09/29 04:20:07;;;;;;;;;;;;;;;14.81;100.00;100212.78;4888870;29;19980;-77
2023/09/29 04:22:33;;;;;;;;;;;;;;;14.76;100.00;100213.25;4886953;29;19931;-77
2023/09/29 04:24:58;;;;;;;;;;;;;;;14.72;100.00;100214.56;4887414;29;19938;-78
2023/09/29 04:27:24;;;;;;;;;;;;;;;14.69;100.00;100222.81;4887568;29;19930;-77
2023/09/29 04:29:50;;;;;;;;;;;;;;;14.70;100.00;100221.84;4886683;29;19991;-76
2023/09/29 04:32:16;;;;;;;;;;;;;;;14.71;100.00;100223.53;4888393;29;20326;-77
2023/09/29 04:34:41;;;;;;;;;;;;;;;14.73;100.00;100211.72;4884979;29;19923;-77
2023/09/29 04:37:07;;;;;;;;;;;;;;;14.69;100.00;100220.16;4888413;29;19962;-77
2023/09/29 04:39:32;;;;;;;;;;;;;;;14.69;100.00;100214.84;4882442;29;19931;-78
2023/09/29 04:41:57;;;;;;;;;;;;;;;14.59;100.00;100222.09;4888426;29;19975;-79
2023/09/29 04:44:23;;;;;;;;;;;;;;;14.63;100.00;100226.09;4887476;29;19924;-77
2023/09/29 04:46:49;;;;;;;;;;;;;;;14.64;100.00;100230.41;4885249;29;19927;-78
2023/09/29 04:49:14;;;;;;;;;;;;;;;14.61;100.00;100238.69;4885990;29;19923;-77
2023/09/29 04:51:40;;;;;;;;;;;;;;;14.62;100.00;100235.88;4889169;29;19962;-75
2023/09/29 04:54:06;;;;;;;;;;;;;;;14.62;100.00;100235.03;4887372;29;19923;-77
2023/09/29 04:56:32;;;;;;;;;;;;;;;14.60;100.00;100237.03;4883422;29;20408;-76
2023/09/29 04:58:57;;;;;;;;;;;;;;;14.61;100.00;100244.00;4885791;29;19923;-77
2023/09/29 05:01:24;;;;;;;;;;;;;;;14.52;100.00;100244.91;4886449;29;19957;-76
2023/09/29 05:03:51;;;;;;;;;;;;;;;14.39;100.00;100249.75;4887511;29;20039;-75
2023/09/29 05:06:16;;;;;;;;;;;;;;;14.33;100.00;100241.38;4888082;29;19928;-77
2023/09/29 05:08:42;;;;;;;;;;;;;;;14.28;100.00;100246.31;4890139;29;19927;-75
2023/09/29 05:11:08;;;;;;;;;;;;;;;14.23;100.00;100237.97;4889304;29;20026;-77
2023/09/29 05:13:34;;;;;;;;;;;;;;;14.19;100.00;100244.56;4890279;29;19931;-77
2023/09/29 05:16:00;;;;;;;;;;;;;;;14.22;100.00;100244.25;4891375;29;19923;-76
2023/09/29 05:18:25;;;;;;;;;;;;;;;14.21;100.00;100245.22;4894302;29;19930;-75
2023/09/29 05:20:51;;;;;;;;;;;;;;;14.21;100.00;100245.22;4888285;29;20063;-74
2023/09/29 05:23:16;;;;;;;;;;;;;;;14.30;100.00;100247.00;4888427;29;20048;-77
2023/09/29 05:25:46;;;;;;;;;;;;;;;14.39;100.00;100244.44;4895399;29;19934;-77
2023/09/29 05:28:12;;;;;;;;;;;;;;;14.37;100.00;100252.59;4892816;29;20341;-77
2023/09/29 05:30:38;;;;;;;;;;;;;;;14.34;100.00;100253.66;4885614;29;19928;-76
2023/09/29 05:33:04;;;;;;;;;;;;;;;14.29;100.00;100255.94;4887715;29;19959;-78
2023/09/29 05:35:29;;;;;;;;;;;;;;;14.33;100.00;100256.47;4892228;29;20381;-79
2023/09/29 05:37:55;;;;;;;;;;;;;;;14.28;100.00;100254.25;4890127;29;19975;-78
2023/09/29 05:40:20;;;;;;;;;;;;;;;14.19;100.00;100252.53;4889060;29;19931;-78
2023/09/29 05:42:46;;;;;;;;;;;;;;;14.20;100.00;100259.47;4890268;29;19931;-78
2023/09/29 05:45:14;;;;;;;;;;;;;;;14.22;100.00;100256.69;4893372;29;20018;-77
2023/09/29 05:47:40;;;;;;;;;;;;;;;14.23;100.00;100256.53;4889301;29;19967;-79
2023/09/29 05:50:05;;;;;;;;;;;;;;;14.23;100.00;100266.31;4908858;23;19995;-76
2023/09/29 05:52:32;;;;;;;;;;;;;;;14.28;100.00;100266.69;4893377;29;19927;-78
2023/09/29 05:54:57;;;;;;;;;;;;;;;14.31;100.00;100269.88;4894527;29;19935;-78
2023/09/29 05:57:22;;;;;;;;;;;;;;;14.35;100.00;100279.25;4895864;29;20276;-78
2023/09/29 05:59:48;;;;;;;;;;;;;;;14.41;100.00;100277.00;4895296;29;19924;-78
2023/09/29 06:02:15;;;;;;;;;;;;;;;14.37;100.00;100267.63;4895928;29;19926;-78
2023/09/29 06:04:40;;;;;;;;;;;;;;;14.35;100.00;100281.91;4878350;29;19923;-75
2023/09/29 06:07:05;;;;;;;;;;;;;;;14.38;100.00;100285.25;4894651;29;19988;-78
2023/09/29 06:09:31;;;;;;;;;;;;;;;14.49;100.00;100282.41;4895454;29;20368;-79
2023/09/29 06:11:56;;;;;;;;;;;;;;;14.53;100.00;100287.25;4895538;29;19966;-78
2023/09/29 06:14:22;;;;;;;;;;;;;;;14.50;100.00;100284.88;4895151;29;19919;-78
2023/09/29 06:16:47;;;;;;;;;;;;;;;14.60;100.00;100290.16;4894942;29;19986;-79
2023/09/29 06:19:12;;;;;;;;;;;;;;;14.65;100.00;100288.72;4895410;29;19972;-78
2023/09/29 06:21:38;;;;;;;;;;;;;;;14.69;100.00;100284.75;4894709;29;19919;-75
2023/09/29 06:24:03;;;;;;;;;;;;;;;14.74;100.00;100292.28;4894837;29;19928;-79
2023/09/29 06:26:29;;;;;;;;;;;;;;;14.75;100.00;100293.94;4895313;29;20002;-79
2023/09/29 06:28:54;;;;;;;;;;;;;;;14.75;100.00;100294.78;4894802;29;19924;-78
2023/09/29 06:31:19;;;;;;;;;;;;;;;14.79;100.00;100300.63;4895210;29;19926;-79
2023/09/29 06:33:45;;;;;;;;;;;;;;;14.80;100.00;100296.97;4894817;29;19966;-78
2023/09/29 06:36:10;;;;;;;;;;;;;;;14.77;100.00;100305.28;4894921;29;19935;-78
2023/09/29 06:38:35;;;;;;;;;;;;;;;14.83;100.00;100312.63;4894569;29;19924;-78
2023/09/29 06:41:01;;;;;;;;;;;;;;;14.88;100.00;100313.00;4894525;29;20003;-78
2023/09/29 06:43:26;;;;;;;;;;;;;;;14.96;100.00;100310.41;4894997;29;19923;-79
2023/09/29 06:45:51;;;;;;;;;;;;;;;15.00;100.00;100309.13;4894734;29;19923;-79
2023/09/29 06:48:17;;;;;;;;;;;;;;;15.03;100.00;100303.50;4894993;29;19971;-79
2023/09/29 06:50:42;;;;;;;;;;;;;;;15.08;100.00;100309.19;4894633;29;19924;-79
2023/09/29 06:53:07;;;;;;;;;;;;;;;15.16;100.00;100313.75;4898520;29;19923;-78
2023/09/29 06:55:33;;;;;;;;;;;;;;;15.13;100.00;100322.88;4898514;29;20022;-78
2023/09/29 06:57:59;;;;;;;;;;;;;;;15.14;100.00;100319.22;4905724;29;20420;-78
2023/09/29 07:00:24;;;;;;;;;;;;;;;15.22;100.00;100318.44;4910060;29;19988;-77
2023/09/29 07:02:50;;;;;;;;;;;;;;;15.33;100.00;100320.84;4907828;29;19938;-78
2023/09/29 07:05:15;;;;;;;;;;;;;;;15.41;100.00;100322.75;4908306;29;20288;-77
2023/09/29 07:07:40;;;;;;;;;;;;;;;15.50;100.00;100316.50;4907151;29;19927;-78
2023/09/29 07:10:06;;;;;;;;;;;;;;;15.52;100.00;100317.22;4905617;29;19923;-78
2023/09/29 07:12:32;;;;;;;;;;;;;;;15.59;100.00;100315.59;4896373;29;20069;-78
2023/09/29 07:14:58;;;;;;;;;;;;;;;15.61;100.00;100313.59;4897105;29;19971;-77
2023/09/29 07:17:24;;;;;;;;;;;;;;;15.70;100.00;100317.16;4896112;29;19924;-77
2023/09/29 07:19:49;;;;;;;;;;;;;;;15.81;100.00;100315.06;4899130;29;19942;-76
2023/09/29 07:22:16;;;;;;;;;;;;;;;15.91;100.00;100310.44;4897029;29;19923;-75
2023/09/29 07:24:41;;;;;;;;;;;;;;;16.04;100.00;100314.50;4879377;29;19958;-74
2023/09/29 07:27:08;;;;;;;;;;;;;;;16.14;100.00;100316.03;4898128;29;20047;-73
2023/09/29 07:29:34;;;;;;;;;;;;;;;16.22;100.00;100323.25;4898004;29;19923;-76
2023/09/29 07:31:59;;;;;;;;;;;;;;;16.28;100.00;100322.59;4896129;29;19938;-75
2023/09/29 07:34:27;;;;;;;;;;;;;;;16.38;100.00;100334.78;4898020;29;20287;-77
2023/09/29 07:36:52;;;;;;;;;;;;;;;16.46;100.00;100334.00;4896877;29;20388;-75
2023/09/29 07:39:18;;;;;;;;;;;;;;;16.56;100.00;100333.84;4891842;29;19924;-77
2023/09/29 07:41:43;;;;;;;;;;;;;;;16.66;100.00;100342.59;4896461;29;19923;-76
2023/09/29 07:44:08;;;;;;;;;;;;;;;16.77;100.00;100340.44;4890218;29;19924;-76
2023/09/29 07:46:37;;;;;;;;;;;;;;;16.88;100.00;100338.47;4894492;29;19931;-75
2023/09/29 07:49:05;;;;;;;;;;;;;;;16.97;100.00;100340.13;4894973;29;20411;-76
2023/09/29 07:51:32;;;;;;;;;;;;;;;17.05;100.00;100342.81;4880856;29;20090;-77
2023/09/29 07:53:57;;;;;;;;;;;;;;;17.12;100.00;100343.81;4896883;29;19927;-74
2023/09/29 07:56:23;;;;;;;;;;;;;;;17.19;100.00;100350.16;4894632;29;20288;-74
2023/09/29 07:58:48;;;;;;;;;;;;;;;17.26;100.00;100356.47;4895948;29;19982;-72
2023/09/29 08:01:14;;;;;;;;;;;;;;;17.29;100.00;100350.81;4897450;29;19931;-74
2023/09/29 08:03:41;;;;;;;;;;;;;;;17.32;100.00;100350.47;4895497;29;19930;-74
2023/09/29 08:06:08;;;;;;;;;;;;;;;17.34;100.00;100345.81;4897135;29;20569;-74
2023/09/29 08:08:33;;;;;;;;;;;;;;;17.43;100.00;100352.84;4896711;29;19923;-73
2023/09/29 08:10:59;;;;;;;;;;;;;;;17.51;100.00;100358.16;4895889;29;20385;-74
2023/09/29 08:13:25;;;;;;;;;;;;;;;17.59;100.00;100358.16;4894110;29;19923;-74
2023/09/29 08:15:50;;;;;;;;;;;;;;;17.67;100.00;100364.53;4895969;29;20017;-75
2023/09/29 08:18:17;;;;;;;;;;;;;;;17.74;100.00;100365.50;4896585;29;20344;-74
2023/09/29 08:20:42;;;;;;;;;;;;;;;17.77;100.00;100350.00;4896209;29;20018;-73
2023/09/29 08:23:08;;;;;;;;;;;;;;;17.84;100.00;100364.34;4896584;29;20002;-74
2023/09/29 08:25:33;;;;;;;;;;;;;;;17.92;100.00;100368.81;4896106;29;19923;-74
2023/09/29 08:28:02;;;;;;;;;;;;;;;18.00;100.00;100368.78;4896046;29;19923;-74
2023/09/29 08:30:28;;;;;;;;;;;;;;;18.08;100.00;100368.78;4896566;29;19923;-74
2023/09/29 08:32:53;;;;;;;;;;;;;;;18.14;100.00;100369.94;4893913;29;19927;-74
2023/09/29 08:35:18;;;;;;;;;;;;;;;18.20;100.00;100377.25;4896423;29;19919;-74
2023/09/29 08:37:45;;;;;;;;;;;;;;;18.27;100.00;100367.53;4892023;29;19924;-74
2023/09/29 08:40:12;;;;;;;;;;;;;;;18.37;100.00;100373.53;4892917;29;20459;-75
2023/09/29 08:42:38;;;;;;;;;;;;;;;18.46;100.00;100375.16;4879160;29;19923;-75
2023/09/29 08:45:07;;;;;;;;;;;;;;;18.53;100.00;100372.63;4895761;29;19934;-74
2023/09/29 08:47:35;;;;;;;;;;;;;;;18.61;100.00;100364.59;4895923;29;19931;-74
2023/09/29 08:50:01;;;;;;;;;;;;;;;18.70;100.00;100369.72;4895403;29;19935;-74
2023/09/29 08:52:30;;;;;;;;;;;;;;;18.75;100.00;100355.81;4893481;29;19935;-74
2023/09/29 08:54:55;;;;;;;;;;;;;;;18.84;100.00;100370.00;4895111;29;20026;-74
2023/09/29 08:57:21;;;;;;;;;;;;;;;18.90;100.00;100370.13;4896013;29;19980;-74
2023/09/29 08:59:48;;;;;;;;;;;;;;;18.97;100.00;100370.22;4878349;29;19924;-74
2023/09/29 09:02:14;;;;;;;;;;;;;;;19.05;100.00;100362.97;4895853;29;19979;-73
2023/09/29 09:04:39;;;;;;;;;;;;;;;19.10;100.00;100360.59;4895381;29;20087;-73
2023/09/29 09:07:04;;;;;;;;;;;;;;;19.16;100.00;100370.59;4863439;29;20010;-74
2023/09/29 09:09:30;;;;;;;;;;;;;;;19.22;100.00;100369.88;4893283;29;20059;-74
2023/09/29 09:11:56;;;;;;;;;;;;;;;19.29;100.00;100371.84;4893803;29;19970;-74
2023/09/29 09:14:21;;;;;;;;;;;;;;;19.36;100.00;100375.47;4893862;29;20449;-74
2023/09/29 09:16:46;;;;;;;;;;;;;;;19.43;100.00;100376.44;4895228;29;19924;-73
2023/09/29 09:19:12;;;;;;;;;;;;;;;19.49;100.00;100365.03;4895586;29;19923;-73
2023/09/29 09:21:38;;;;;;;;;;;;;;;19.53;100.00;100366.31;4895632;29;19924;-72
2023/09/29 09:24:04;;;;;;;;;;;;;;;19.59;100.00;100370.94;4895247;29;20411;-74
2023/09/29 09:26:30;;;;;;;;;;;;;;;19.67;100.00;100373.56;4895613;29;20304;-74
2023/09/29 09:29:05;;;;;;;;;;;;;;;19.74;100.00;100368.28;4892287;29;19924;-73
2023/09/29 09:31:40;;;;;;;;;;;;;;;19.80;100.00;100367.56;4895461;29;19974;-73
2023/09/29 09:34:05;;;;;;;;;;;;;;;19.85;100.00;100365.19;4892555;29;19923;-73
2023/09/29 09:36:31;;;;;;;;;;;;;;;19.88;100.00;100360.28;4894325;29;19979;-76
2023/09/29 09:38:56;;;;;;;;;;;;;;;19.93;100.00;100363.25;4894671;29;19927;-75
2023/09/29 09:41:22;;;;;;;;;;;;;;;19.97;100.00;100353.81;4895351;29;19923;-74
2023/09/29 09:43:47;;;;;;;;;;;;;;;20.03;100.00;100353.09;4895038;29;20010;-73
2023/09/29 09:46:13;;;;;;;;;;;;;;;20.10;100.00;100352.34;4895236;29;20400;-73
2023/09/29 09:49:10;;;;;;;;;;;;;;;20.16;100.00;100348.94;4890741;29;19923;-73
2023/09/29 09:51:37;;;;;;;;;;;;;;;20.24;100.00;100338.97;4894410;29;20433;-75
2023/09/29 09:54:03;;;;;;;;;;;;;;;20.30;100.00;100329.34;4894678;29;20026;-75
2023/09/29 09:56:50;;;;;;;;;;;;;;;20.35;100.00;100340.34;4895273;29;19962;-75
2023/09/29 09:59:16;;;;;;;;;;;;;;;20.40;100.00;100344.13;4895212;29;19924;-74
2023/09/29 10:01:42;;;;;;;;;;;;;;;20.46;100.00;100347.91;4894626;29;19987;-75
2023/09/29 10:04:08;;;;;;;;;;;;;;;20.50;100.00;100354.56;4895072;29;19959;-73
2023/09/29 10:06:34;;;;;;;;;;;;;;;20.54;100.00;100345.16;4895241;29;19966;-75
2023/09/29 10:09:00;;;;;;;;;;;;;;;20.57;100.00;100350.13;4890603;29;20386;-75
2023/09/29 10:11:29;;;;;;;;;;;;;;;20.62;100.00;100342.34;4894995;29;19923;-75
2023/09/29 10:14:04;;;;;;;;;;;;;;;20.68;100.00;100338.91;4894643;29;19971;-75
2023/09/29 10:16:31;;;;;;;;;;;;;;;20.72;100.00;100337.53;4894997;29;19923;-75
2023/09/29 10:19:00;;;;;;;;;;;;;;;20.77;100.00;100334.25;4890515;29;19949;-75
2023/09/29 10:21:26;;;;;;;;;;;;;;;20.80;100.00;100334.69;4894911;29;19923;-75
2023/09/29 10:23:51;;;;;;;;;;;;;;;20.84;100.00;100330.66;4894388;29;19923;-76
2023/09/29 10:26:17;;;;;;;;;;;;;;;20.89;100.00;100324.69;4891817;29;20300;-74
2023/09/29 10:28:46;;;;;;;;;;;;;;;20.93;100.00;100322.44;4898519;29;19976;-75
2023/09/29 10:31:13;;;;;;;;;;;;;;;20.99;100.00;100321.69;4895349;29;20037;-74
2023/09/29 10:33:55;;;;;;;;;;;;;;;21.03;100.00;100320.31;4898059;29;19923;-74
2023/09/29 10:36:21;;;;;;;;;;;;;;;21.09;100.00;100312.28;4895841;29;19959;-75
2023/09/29 10:38:47;;;;;;;;;;;;;;;21.14;100.00;100311.72;4895309;29;19971;-75
2023/09/29 10:41:13;;;;;;;;;;;;;;;21.20;100.00;100313.69;4881382;29;19978;-74
2023/09/29 10:43:41;;;;;;;;;;;;;;;21.23;100.00;100313.28;4898310;29;20022;-75
2023/09/29 10:46:10;;;;;;;;;;;;;;;21.30;100.00;100311.50;4896086;29;19931;-74
2023/09/29 10:48:45;;;;;;;;;;;;;;;21.39;100.00;100306.78;4897771;29;19931;-75
2023/09/29 10:51:20;;;;;;;;;;;;;;;21.44;100.00;100305.19;4894176;29;19928;-75
2023/09/29 10:53:45;;;;;;;;;;;;;;;21.48;100.00;100298.41;4895292;29;20287;-75
2023/09/29 10:56:10;;;;;;;;;;;;;;;21.53;100.00;100293.28;4898124;29;19923;-75
2023/09/29 10:58:37;;;;;;;;;;;;;;;21.57;100.00;100286.50;4898609;29;20079;-75
2023/09/29 11:01:02;;;;;;;;;;;;;;;21.62;100.00;100286.72;4898133;29;19927;-75
2023/09/29 11:03:28;;;;;;;;;;;;;;;21.69;100.00;100281.41;4893958;29;20006;-75
2023/09/29 11:05:54;;;;;;;;;;;;;;;21.79;100.00;100281.91;4894173;29;19972;-75
2023/09/29 11:08:27;;;;;;;;;;;;;;;21.88;100.00;100285.25;4894042;29;20346;-75
2023/09/29 11:11:03;;;;;;;;;;;;;;;21.94;100.00;100273.69;4897443;29;20288;-75
2023/09/29 11:13:29;;;;;;;;;;;;;;;22.09;100.00;100271.72;4897913;29;20018;-75
2023/09/29 11:15:55;;;;;;;;;;;;;;;22.19;100.00;100266.84;4897570;29;20006;-75
2023/09/29 11:18:27;;;;;;;;;;;;;;;22.33;100.00;100262.31;4897436;29;20022;-76
2023/09/29 11:20:55;;;;;;;;;;;;;;;22.44;100.00;100254.50;4896847;29;19924;-75
2023/09/29 11:23:20;;;;;;;;;;;;;;;22.59;100.00;100253.50;4893693;29;19931;-75
2023/09/29 11:26:04;;;;;;;;;;;;;;;22.78;100.00;100253.56;4888397;29;19923;-76
2023/09/29 11:28:30;;;;;;;;;;;;;;;22.95;100.00;100240.56;4896433;29;19935;-75
2023/09/29 11:30:55;;;;;;;;;;;;;;;23.16;100.00;100237.63;4897189;29;19923;-74
2023/09/29 11:33:21;;;;;;;;;;;;;;;23.33;100.00;100237.22;4895159;29;19935;-75
2023/09/29 11:35:46;;;;;;;;;;;;;;;23.47;100.00;100241.59;4896792;29;19987;-74
2023/09/29 11:38:16;;;;;;;;;;;;;;;23.64;100.00;100240.09;4880432;29;20448;-75
2023/09/29 11:40:42;;;;;;;;;;;;;;;23.76;100.00;100233.03;4896623;29;19923;-75
2023/09/29 11:43:07;;;;;;;;;;;;;;;23.91;100.00;100236.31;4897644;29;20399;-74
2023/09/29 11:45:34;;;;;;;;;;;;;;;24.05;100.00;100226.28;4897305;29;19931;-74
2023/09/29 11:48:01;;;;;;;;;;;;;;;24.16;100.00;100232.84;4897275;29;19923;-74
2023/09/29 11:50:28;;;;;;;;;;;;;;;24.26;100.00;100223.31;4896980;29;19934;-74
2023/09/29 11:52:54;;;;;;;;;;;;;;;24.39;100.00;100225.09;4897202;29;19927;-74
2023/09/29 11:55:19;;;;;;;;;;;;;;;24.53;100.00;100223.16;4875904;29;20403;-75
2023/09/29 11:57:44;;;;;;;;;;;;;;;24.69;100.00;100209.97;4897156;29;19935;-75
2023/09/29 12:00:10;;;;;;;;;;;;;;;24.86;100.00;100207.53;4896945;29;19938;-75
2023/09/29 12:02:37;;;;;;;;;;;;;;;25.03;100.00;100207.88;4897084;29;19920;-74
2023/09/29 12:05:04;;;;;;;;;;;;;;;25.18;100.00;100205.66;4895871;29;19958;-74
2023/09/29 12:07:30;;;;;;;;;;;;;;;25.26;100.00;100197.28;4896715;29;20447;-74
2023/09/29 12:09:55;;;;;;;;;;;;;;;25.42;100.00;100198.56;4896175;29;19942;-74
2023/09/29 12:12:22;;;;;;;;;;;;;;;25.54;100.00;100194.91;4896734;29;19928;-73
2023/09/29 12:14:47;;;;;;;;;;;;;;;25.67;100.00;100189.38;4889670;29;20396;-75
2023/09/29 12:17:12;;;;;;;;;;;;;;;25.80;100.00;100184.88;4896720;29;19930;-76
2023/09/29 12:19:38;;;;;;;;;;;;;;;25.90;100.00;100177.06;4896608;29;20010;-74
2023/09/29 12:22:03;;;;;;;;;;;;;;;26.01;100.00;100181.69;4896308;29;20018;-77
2023/09/29 12:24:29;;;;;;;;;;;;;;;26.00;100.00;100177.31;4895824;29;20452;-74